Main page
METAR-TAF:

METAR-TAF

Airports :

Kushok Bakula Rimpochee Airport

Leh, India

latitude: 34-08-09N, longitude: 077-32-47E, elevation: 3256 m

Current weather observation

The report was made 1 hour and 23 minutes ago, at 04:30 UTC
Wind 6 kt from the West
Temperature 21°C
Humidity 26%
Pressure 1024 hPa
Visibility: 8000 m
Few clouds at a height of 7000 ft
Broken clouds at a height of 10000 ft

METAR: VILH 250430Z 26006KT 8000 FEW070 BKN100 21/01 Q1024 NOSIG

Time: 11:23 (05:53 UTC)

Forecast

The report was made 2 hours and 23 minutes ago, at 03:30 UTC
Forecast valid from 25 at 06 UTC to 25 at 18 UTC
Wind 10 kt from the West
Visibility 10 km or more
Few clouds at a height of 7000 ft
Scattered clouds at a height of 10000 ft
Temporary
from 25 at 06 UTC to 25 at 10 UTC
Broken clouds at a height of 10000 ft
Temporary
from 25 at 12 UTC to 25 at 16 UTC
Wind 20 kt from the West with gusts up to 30 kt

TAF: VILH 250330Z 2506/2518 28010KT 9999 FEW070 SCT100 TEMPO 2506/2510 BKN100 TEMPO 2512/2516 27020G30KT

Weather observations and forecasts of more than 4000 airports (METAR and TAF reports).

The available stations are represented by yellow and red dots on the map.

Hover mouse over dot to see the name of the station.

Then click to see weather observations and forecasts.

To change the map : click on the green buttons with a black cross to zoom in, on the green button with a dash to zoom out, or on the green arrows for adjacent maps.


METAR-TAF: